createdAt,value
2018-04-11T00:00:53.400Z,81.90
2018-04-11T00:03:21.676Z,82.64
2018-04-11T00:05:50.113Z,82.11
2018-04-11T00:08:19.232Z,82.16
2018-04-11T00:10:48.355Z,82.57
2018-04-11T00:13:16.741Z,82.35
2018-04-11T00:15:45.683Z,82.00
2018-04-11T00:18:14.783Z,82.35
2018-04-11T00:20:43.836Z,82.20
2018-04-11T00:23:12.848Z,81.93
2018-04-11T00:25:41.426Z,82.39
2018-04-11T00:28:09.703Z,82.51
2018-04-11T00:30:38.128Z,82.42
2018-04-11T00:33:07.179Z,82.43
2018-04-11T00:35:35.436Z,82.47
2018-04-11T00:38:03.731Z,82.77
2018-04-11T00:40:32.195Z,83.08
2018-04-11T00:43:02.035Z,82.68
2018-04-11T00:45:30.815Z,83.09
2018-04-11T00:47:59.103Z,82.94
2018-04-11T00:50:27.829Z,82.61
2018-04-11T00:53:14.634Z,83.05
2018-04-11T00:55:43.691Z,82.96
2018-04-11T00:58:12.922Z,82.65
2018-04-11T01:00:43.203Z,82.41
2018-04-11T01:03:11.471Z,83.14
2018-04-11T01:05:40.179Z,82.73
2018-04-11T01:08:09.146Z,83.04
2018-04-11T01:10:37.682Z,82.68
2018-04-11T01:13:06.289Z,83.15
2018-04-11T01:15:36.275Z,82.76
2018-04-11T01:18:05.226Z,82.80
2018-04-11T01:20:33.486Z,82.94
2018-04-11T01:23:01.766Z,83.25
2018-04-11T01:25:30.819Z,83.11
2018-04-11T01:27:59.094Z,83.46
2018-04-11T01:30:27.412Z,83.53
2018-04-11T01:32:55.922Z,83.31
2018-04-11T01:35:24.215Z,83.49
2018-04-11T01:37:52.519Z,83.32
2018-04-11T01:40:21.750Z,83.34
2018-04-11T01:42:50.776Z,83.57
2018-04-11T01:45:19.685Z,83.67
2018-04-11T01:47:47.974Z,83.80
2018-04-11T01:50:16.237Z,83.40
2018-04-11T01:52:44.610Z,83.57
2018-04-11T01:55:13.758Z,83.96
2018-04-11T01:57:42.799Z,83.91
2018-04-11T02:00:12.095Z,83.57
2018-04-11T02:02:40.376Z,84.43
2018-04-11T02:05:08.650Z,84.02
2018-04-11T02:07:37.680Z,83.79
2018-04-11T02:10:06.277Z,83.38
2018-04-11T02:12:35.138Z,83.56
2018-04-11T02:15:03.885Z,83.87
2018-04-11T02:17:32.166Z,83.42
2018-04-11T02:20:00.576Z,83.56
2018-04-11T02:22:30.927Z,83.52
2018-04-11T02:24:59.791Z,83.61
2018-04-11T02:27:28.731Z,83.23
2018-04-11T02:29:57.795Z,83.20
2018-04-11T02:32:26.689Z,83.08
2018-04-11T02:34:55.259Z,83.39
2018-04-11T02:37:24.384Z,83.45
2018-04-11T02:39:53.498Z,83.54
2018-04-11T02:42:22.644Z,82.98
2018-04-11T02:44:51.643Z,83.20
2018-04-11T02:47:19.920Z,83.52
2018-04-11T02:49:48.286Z,82.69
2018-04-11T02:52:16.566Z,82.37
2018-04-11T02:54:45.508Z,82.94
2018-04-11T02:57:14.039Z,82.68
2018-04-11T02:59:43.906Z,83.72
2018-04-11T03:02:13.032Z,83.25
2018-04-11T03:04:42.057Z,83.34
2018-04-11T03:07:10.321Z,83.58
2018-04-11T03:09:39.735Z,83.23
2018-04-11T03:12:08.019Z,83.01
2018-04-11T03:14:37.046Z,83.32
2018-04-11T03:17:05.327Z,82.92
2018-04-11T03:19:34.207Z,83.45
2018-04-11T03:22:02.519Z,83.51
2018-04-11T03:24:31.562Z,83.86
2018-04-11T03:26:59.837Z,83.42
2018-04-11T03:29:28.566Z,83.51
2018-04-11T03:31:56.916Z,82.72
2018-04-11T03:34:25.191Z,83.15
2018-04-11T03:36:53.787Z,83.11
2018-04-11T03:39:22.063Z,83.31
2018-04-11T03:41:51.250Z,83.25
2018-04-11T03:44:20.638Z,83.67
2018-04-11T03:46:50.388Z,82.98
2018-04-11T03:49:18.769Z,83.11
2018-04-11T03:51:47.136Z,83.25
2018-04-11T03:54:15.763Z,82.58
2018-04-11T03:56:45.814Z,82.47
2018-04-11T03:59:14.106Z,83.49
2018-04-11T04:01:42.537Z,83.65
2018-04-11T04:04:10.847Z,82.92
2018-04-11T04:06:39.946Z,82.68
2018-04-11T04:09:08.242Z,82.76
2018-04-11T04:11:36.530Z,82.92
2018-04-11T04:14:22.922Z,83.24
2018-04-11T04:17:09.053Z,83.10
2018-04-11T04:19:55.224Z,83.34
2018-04-11T04:22:23.483Z,83.46
2018-04-11T04:24:51.758Z,83.28
2018-04-11T04:27:20.139Z,83.81
2018-04-11T04:29:49.455Z,83.58
2018-04-11T04:32:17.743Z,83.62
2018-04-11T04:34:46.375Z,83.71
2018-04-11T04:37:14.943Z,83.04
2018-04-11T04:39:44.007Z,83.34
2018-04-11T04:42:12.783Z,82.73
2018-04-11T04:44:41.142Z,83.57
2018-04-11T04:47:09.474Z,83.69
2018-04-11T04:49:37.878Z,83.50
2018-04-11T04:52:06.932Z,83.04
2018-04-11T04:54:36.110Z,83.62
2018-04-11T04:57:05.015Z,83.43
2018-04-11T04:59:33.283Z,83.09
2018-04-11T05:02:01.750Z,83.58
2018-04-11T05:04:30.422Z,84.10
2018-04-11T05:06:58.701Z,83.05
2018-04-11T05:09:26.972Z,83.87
2018-04-11T05:11:55.281Z,84.04
2018-04-11T05:14:24.270Z,83.42
2018-04-11T05:16:52.552Z,83.86
2018-04-11T05:19:21.225Z,83.51
2018-04-11T05:21:50.350Z,83.65
2018-04-11T05:24:18.611Z,83.15
2018-04-11T05:26:46.891Z,83.03
2018-04-11T05:29:15.363Z,82.63
2018-04-11T05:31:43.902Z,82.74
2018-04-11T05:34:12.512Z,82.32
2018-04-11T05:36:41.635Z,82.72
2018-04-11T05:39:10.074Z,82.19
2018-04-11T05:41:39.114Z,82.71
2018-04-11T05:44:08.011Z,82.74
2018-04-11T05:46:38.022Z,82.54
2018-04-11T05:49:06.293Z,82.56
2018-04-11T05:51:34.774Z,82.43
2018-04-11T05:54:03.297Z,81.89
2018-04-11T05:56:31.884Z,82.26
2018-04-11T05:59:00.162Z,82.58
2018-04-11T06:01:29.061Z,82.80
2018-04-11T06:03:57.401Z,82.43
2018-04-11T06:06:27.628Z,82.24
2018-04-11T06:08:56.022Z,82.03
2018-04-11T06:11:24.316Z,82.15
2018-04-11T06:13:52.660Z,82.61
2018-04-11T06:16:20.932Z,82.59
2018-04-11T06:18:49.335Z,82.81
2018-04-11T06:21:17.607Z,82.73
2018-04-11T06:23:45.882Z,82.48
2018-04-11T06:26:14.191Z,83.11
2018-04-11T06:28:42.461Z,82.61
2018-04-11T06:31:13.675Z,81.99
2018-04-11T06:33:42.001Z,81.84
2018-04-11T06:36:10.274Z,81.23
2018-04-11T06:38:38.714Z,81.06
2018-04-11T06:41:06.991Z,81.72
2018-04-11T06:43:36.007Z,81.40
2018-04-11T06:46:06.022Z,82.20
2018-04-11T06:48:34.308Z,82.58
2018-04-11T06:51:03.113Z,82.35
2018-04-11T06:53:31.403Z,81.83
2018-04-11T06:56:00.559Z,82.70
2018-04-11T06:58:29.030Z,81.81
2018-04-11T07:00:57.856Z,82.03
2018-04-11T07:03:26.734Z,81.83
2018-04-11T07:05:55.095Z,82.20
2018-04-11T07:08:23.387Z,82.30
2018-04-11T07:10:53.097Z,81.96
2018-04-11T07:13:21.350Z,81.76
2018-04-11T07:15:50.354Z,81.45
2018-04-11T07:18:19.426Z,80.93
2018-04-11T07:20:48.983Z,81.59
2018-04-11T07:23:17.802Z,80.71
2018-04-11T07:25:47.081Z,80.51
2018-04-11T07:28:16.860Z,79.92
2018-04-11T07:30:45.186Z,80.24
2018-04-11T07:33:14.035Z,80.48
2018-04-11T07:35:42.408Z,80.44
2018-04-11T07:38:10.742Z,79.72
2018-04-11T07:40:39.794Z,79.20
2018-04-11T07:43:08.180Z,79.68
2018-04-11T07:45:36.497Z,80.14
2018-04-11T07:48:06.439Z,80.00
2018-04-11T07:50:35.479Z,80.64
2018-04-11T07:53:04.282Z,79.27
2018-04-11T07:55:34.747Z,78.82
2018-04-11T07:58:05.304Z,80.16
2018-04-11T08:00:34.101Z,79.50
2018-04-11T08:03:02.392Z,80.24
2018-04-11T08:05:31.006Z,79.34
2018-04-11T08:07:59.698Z,79.05
2018-04-11T08:10:28.726Z,79.08
2018-04-11T08:12:57.642Z,78.93
2018-04-11T08:15:26.768Z,79.24
2018-04-11T08:17:57.560Z,79.17
2018-04-11T08:20:25.781Z,79.29
2018-04-11T08:22:54.378Z,78.72
2018-04-11T08:25:23.271Z,78.58
2018-04-11T08:27:52.031Z,78.10
2018-04-11T08:30:20.447Z,78.19
2018-04-11T08:32:49.901Z,78.12
2018-04-11T08:35:18.920Z,78.26
2018-04-11T08:37:47.304Z,78.25
2018-04-11T08:40:15.617Z,77.07
2018-04-11T08:42:44.083Z,79.89
2018-04-11T08:45:13.141Z,78.62
2018-04-11T08:47:41.681Z,77.79
2018-04-11T08:50:09.987Z,78.28
2018-04-11T08:52:38.459Z,78.05
2018-04-11T08:55:06.759Z,77.43
2018-04-11T08:57:35.139Z,77.05
2018-04-11T09:00:03.414Z,76.96
2018-04-11T09:02:31.736Z,75.88
2018-04-11T09:05:00.791Z,77.54
2018-04-11T09:07:29.064Z,77.82
2018-04-11T09:09:59.015Z,76.57
2018-04-11T09:12:27.650Z,76.42
2018-04-11T09:14:55.912Z,76.59
2018-04-11T09:17:24.202Z,77.38
2018-04-11T09:19:52.714Z,76.37
2018-04-11T09:22:21.862Z,76.40
2018-04-11T09:24:51.275Z,75.87
2018-04-11T09:27:19.726Z,76.80
2018-04-11T09:29:48.000Z,75.60
2018-04-11T09:32:16.841Z,76.49
2018-04-11T09:34:45.362Z,76.53
2018-04-11T09:37:15.569Z,75.94
2018-04-11T09:39:44.259Z,76.79
2018-04-11T09:42:12.622Z,76.84
2018-04-11T09:44:42.956Z,76.75
2018-04-11T09:47:12.953Z,76.00
2018-04-11T09:49:41.963Z,76.67
2018-04-11T09:52:10.244Z,76.97
2018-04-11T09:54:38.512Z,77.65
2018-04-11T09:57:09.060Z,77.11
2018-04-11T09:59:38.087Z,76.50
2018-04-11T10:02:06.391Z,76.81
2018-04-11T10:04:35.572Z,75.75
2018-04-11T10:07:04.619Z,76.67
2018-04-11T10:09:32.881Z,77.37
2018-04-11T10:12:01.380Z,77.31
2018-04-11T10:14:30.604Z,77.25
2018-04-11T10:16:59.578Z,77.81
2018-04-11T10:19:28.024Z,77.74
2018-04-11T10:21:59.056Z,77.98
2018-04-11T10:24:28.479Z,77.24
2018-04-11T10:26:58.031Z,77.04
2018-04-11T10:29:26.843Z,77.15
2018-04-11T10:31:55.189Z,77.97
2018-04-11T10:34:23.462Z,78.22
2018-04-11T10:36:52.258Z,78.58
2018-04-11T10:39:20.743Z,78.10
2018-04-11T10:41:49.210Z,78.05
2018-04-11T10:44:17.621Z,78.56
2018-04-11T10:46:45.915Z,79.55
2018-04-11T10:49:14.198Z,79.07
2018-04-11T10:51:44.214Z,78.82
2018-04-11T10:54:13.576Z,78.60
2018-04-11T10:56:41.851Z,77.81
2018-04-11T10:59:10.131Z,77.87
2018-04-11T11:01:38.427Z,79.13
2018-04-11T11:04:07.273Z,78.69
2018-04-11T11:06:35.555Z,78.84
2018-04-11T11:09:03.838Z,78.56
2018-04-11T11:11:32.328Z,78.19
2018-04-11T11:14:00.603Z,76.85
2018-04-11T11:16:36.763Z,77.78
2018-04-11T11:19:05.019Z,78.45
2018-04-11T11:21:33.307Z,79.17
2018-04-11T11:24:01.600Z,79.09
2018-04-11T11:26:29.902Z,79.16
2018-04-11T11:28:58.464Z,78.17
2018-04-11T11:31:26.739Z,77.84
2018-04-11T11:33:55.007Z,78.14
2018-04-11T11:36:23.489Z,77.60
2018-04-11T11:38:52.377Z,79.31
2018-04-11T11:41:20.657Z,77.92
2018-04-11T11:43:48.969Z,78.29
2018-04-11T11:46:17.319Z,79.52
2018-04-11T11:48:45.822Z,79.48
2018-04-11T11:51:14.761Z,79.80
2018-04-11T11:53:44.544Z,80.11
2018-04-11T11:56:13.150Z,79.53
2018-04-11T11:58:42.407Z,79.49
2018-04-11T12:01:10.705Z,79.13
2018-04-11T12:03:39.019Z,78.74
2018-04-11T12:06:08.882Z,79.56
2018-04-11T12:08:37.238Z,79.46
2018-04-11T12:11:05.544Z,78.62
2018-04-11T12:13:33.858Z,78.29
2018-04-11T12:16:02.931Z,78.92
2018-04-11T12:18:31.552Z,77.74
2018-04-11T12:21:00.583Z,77.07
2018-04-11T12:23:29.327Z,77.22
2018-04-11T12:25:59.228Z,77.52
2018-04-11T12:28:27.759Z,78.12
2018-04-11T12:30:56.035Z,77.88
2018-04-11T12:33:24.855Z,77.94
2018-04-11T12:35:53.541Z,78.79
2018-04-11T12:38:21.899Z,78.77
2018-04-11T12:40:50.190Z,77.82
2018-04-11T12:43:19.206Z,78.53
2018-04-11T12:45:48.023Z,77.58
2018-04-11T12:48:17.764Z,77.97
2018-04-11T12:50:47.533Z,77.68
2018-04-11T12:53:17.421Z,78.22
2018-04-11T12:55:45.686Z,77.82
2018-04-11T12:58:14.824Z,77.23
2018-04-11T13:00:43.423Z,78.29
2018-04-11T13:03:12.470Z,78.14
2018-04-11T13:05:41.715Z,78.24
2018-04-11T13:08:10.298Z,78.55
2018-04-11T13:10:39.451Z,79.02
2018-04-11T13:13:08.489Z,78.59
2018-04-11T13:15:37.525Z,78.58
2018-04-11T13:18:06.016Z,78.54
2018-04-11T13:20:34.324Z,78.74
2018-04-11T13:23:02.599Z,77.58
2018-04-11T13:25:31.066Z,77.72
2018-04-11T13:27:59.355Z,77.44
2018-04-11T13:30:27.961Z,76.80
2018-04-11T13:32:56.238Z,77.26
2018-04-11T13:35:26.113Z,76.66
2018-04-11T13:37:55.111Z,76.99
2018-04-11T13:40:23.404Z,76.48
2018-04-11T13:42:51.687Z,76.77
2018-04-11T13:45:21.296Z,76.78
2018-04-11T13:47:50.309Z,76.77
2018-04-11T13:50:19.651Z,75.65
2018-04-11T13:52:48.363Z,76.69
2018-04-11T13:55:16.643Z,76.53
2018-04-11T13:57:45.127Z,77.45
2018-04-11T14:00:13.530Z,77.52
2018-04-11T14:02:42.415Z,76.32
2018-04-11T14:05:11.869Z,76.08
2018-04-11T14:07:41.115Z,76.07
2018-04-11T14:10:09.411Z,75.51
2018-04-11T14:12:37.813Z,75.63
2018-04-11T14:15:06.854Z,74.78
2018-04-11T14:17:35.130Z,75.35
2018-04-11T14:20:03.442Z,74.96
2018-04-11T14:22:32.255Z,75.25
2018-04-11T14:25:01.473Z,74.37
2018-04-11T14:27:29.768Z,75.84
2018-04-11T14:29:58.952Z,74.68
2018-04-11T14:32:27.569Z,74.16
2018-04-11T14:34:55.944Z,73.62
2018-04-11T14:37:24.408Z,75.09
2018-04-11T14:39:52.997Z,75.59
2018-04-11T14:42:21.587Z,75.77
2018-04-11T14:44:49.847Z,75.99
2018-04-11T14:47:18.122Z,76.43
2018-04-11T14:49:46.411Z,75.75
2018-04-11T14:52:15.509Z,75.38
2018-04-11T14:54:45.843Z,76.21
2018-04-11T14:57:14.606Z,75.56
2018-04-11T14:59:43.325Z,75.55
2018-04-11T15:02:11.629Z,76.02
2018-04-11T15:04:40.036Z,75.95
2018-04-11T15:07:09.862Z,75.64
2018-04-11T15:09:38.716Z,75.65
2018-04-11T15:12:11.769Z,76.05
2018-04-11T15:14:40.073Z,75.77
2018-04-11T15:17:08.357Z,75.91
2018-04-11T15:19:36.631Z,74.82
2018-04-11T15:22:04.990Z,75.71
2018-04-11T15:24:34.846Z,75.50
2018-04-11T15:27:03.143Z,75.57
2018-04-11T15:29:32.296Z,74.24
2018-04-11T15:32:00.648Z,74.71
2018-04-11T15:34:28.931Z,73.89
2018-04-11T15:36:57.441Z,74.68
2018-04-11T15:39:25.715Z,74.93
2018-04-11T15:41:53.990Z,74.88
2018-04-11T15:44:22.279Z,74.78
2018-04-11T15:46:51.343Z,74.70
2018-04-11T15:49:19.614Z,74.36
2018-04-11T15:51:48.012Z,76.05
2018-04-11T15:54:16.298Z,74.51
2018-04-11T15:56:44.567Z,73.81
2018-04-11T15:59:13.247Z,74.16
2018-04-11T16:01:41.530Z,74.72
2018-04-11T16:04:09.819Z,74.30
2018-04-11T16:06:38.119Z,75.08
2018-04-11T16:09:06.411Z,76.20
2018-04-11T16:11:35.250Z,75.85
2018-04-11T16:14:03.523Z,75.89
2018-04-11T16:16:31.826Z,75.51
2018-04-11T16:19:00.541Z,75.34
2018-04-11T16:21:30.761Z,75.74
2018-04-11T16:23:59.530Z,76.27
2018-04-11T16:26:28.198Z,75.75
2018-04-11T16:28:56.485Z,75.65
2018-04-11T16:31:24.786Z,76.00
2018-04-11T16:33:53.075Z,76.40
2018-04-11T16:36:22.950Z,76.05
2018-04-11T16:38:51.739Z,75.87
2018-04-11T16:41:20.470Z,76.67
2018-04-11T16:43:49.619Z,76.69
2018-04-11T16:46:18.307Z,77.05
2018-04-11T16:48:46.585Z,77.08
2018-04-11T16:51:14.887Z,77.23
2018-04-11T16:53:43.627Z,75.92
2018-04-11T16:56:11.914Z,76.10
2018-04-11T16:58:40.221Z,76.47
2018-04-11T17:01:09.282Z,76.86
2018-04-11T17:03:37.634Z,77.38
2018-04-11T17:06:05.967Z,77.38
2018-04-11T17:08:34.452Z,77.19
2018-04-11T17:11:02.735Z,77.19
2018-04-11T17:13:31.512Z,78.00
2018-04-11T17:16:00.102Z,78.38
2018-04-11T17:18:28.378Z,78.39
2018-04-11T17:21:14.543Z,78.33
2018-04-11T17:24:00.561Z,78.25
2018-04-11T17:26:46.755Z,77.39
2018-04-11T17:29:32.755Z,77.84
2018-04-11T17:32:01.124Z,79.01
2018-04-11T17:34:29.492Z,77.84
2018-04-11T17:36:57.783Z,78.06
2018-04-11T17:39:26.107Z,78.50
2018-04-11T17:41:54.920Z,78.20
2018-04-11T17:44:23.956Z,78.12
2018-04-11T17:46:52.542Z,78.15
2018-04-11T17:49:21.665Z,78.30
2018-04-11T17:51:50.051Z,78.53
2018-04-11T17:54:18.675Z,79.11
2018-04-11T17:56:47.204Z,79.09
2018-04-11T17:59:15.478Z,78.71
2018-04-11T18:01:43.799Z,79.13
2018-04-11T18:04:12.842Z,79.91
2018-04-11T18:06:41.247Z,79.44
2018-04-11T18:09:09.532Z,79.46
2018-04-11T18:11:38.637Z,80.26
2018-04-11T18:14:07.433Z,80.37
2018-04-11T18:16:36.469Z,79.98
2018-04-11T18:19:04.741Z,80.27
2018-04-11T18:21:33.444Z,80.14
2018-04-11T18:24:01.759Z,80.10
2018-04-11T18:26:30.452Z,79.87
2018-04-11T18:28:59.455Z,79.90
2018-04-11T18:31:27.819Z,79.79
2018-04-11T18:33:56.391Z,80.33
2018-04-11T18:36:25.186Z,80.54
2018-04-11T18:38:54.135Z,80.26
2018-04-11T18:41:23.091Z,80.55
2018-04-11T18:43:51.369Z,80.61
2018-04-11T18:46:20.731Z,81.40
2018-04-11T18:48:49.092Z,80.98
2018-04-11T18:51:17.373Z,80.01
2018-04-11T18:53:45.679Z,79.99
2018-04-11T18:56:14.029Z,80.46
2018-04-11T18:58:42.310Z,79.97
2018-04-11T19:01:10.605Z,80.07
2018-04-11T19:03:38.891Z,80.62
2018-04-11T19:06:07.465Z,80.57
2018-04-11T19:08:35.767Z,80.67
2018-04-11T19:11:05.551Z,80.53
2018-04-11T19:13:34.041Z,80.25
2018-04-11T19:16:02.341Z,80.23
2018-04-11T19:18:31.375Z,80.96
2018-04-11T19:20:59.709Z,80.33
2018-04-11T19:23:28.489Z,80.36
2018-04-11T19:25:57.305Z,80.61
2018-04-11T19:28:25.591Z,80.79
2018-04-11T19:30:55.179Z,80.68
2018-04-11T19:33:23.458Z,80.14
2018-04-11T19:35:51.943Z,79.46
2018-04-11T19:38:20.293Z,80.33
2018-04-11T19:40:48.575Z,80.21
2018-04-11T19:43:16.854Z,80.32
2018-04-11T19:45:45.162Z,80.29
2018-04-11T19:48:13.453Z,79.90
2018-04-11T19:50:42.536Z,79.58
2018-04-11T19:53:10.866Z,80.04
2018-04-11T19:55:39.191Z,79.85
2018-04-11T19:58:07.481Z,80.28
2018-04-11T20:00:38.214Z,79.83
2018-04-11T20:03:06.513Z,79.22
2018-04-11T20:05:35.143Z,80.03
2018-04-11T20:08:03.417Z,79.50
2018-04-11T20:10:32.612Z,79.92
2018-04-11T20:13:00.937Z,79.31
2018-04-11T20:15:29.968Z,79.69
2018-04-11T20:17:58.241Z,79.31
2018-04-11T20:20:26.530Z,79.19
2018-04-11T20:22:54.851Z,80.00
2018-04-11T20:25:23.299Z,78.88
2018-04-11T20:27:52.743Z,79.23
2018-04-11T20:30:21.027Z,80.16
2018-04-11T20:32:50.694Z,80.20
2018-04-11T20:35:18.975Z,80.53
2018-04-11T20:37:47.262Z,80.63
2018-04-11T20:40:15.522Z,80.60
2018-04-11T20:42:43.799Z,80.23
2018-04-11T20:45:12.196Z,80.69
2018-04-11T20:47:40.458Z,80.72
2018-04-11T20:50:08.730Z,80.78
2018-04-11T20:52:37.123Z,80.95
2018-04-11T20:55:05.385Z,80.92
2018-04-11T20:57:33.656Z,80.77
2018-04-11T21:00:01.973Z,81.23
2018-04-11T21:02:30.653Z,80.76
2018-04-11T21:04:59.616Z,81.38
2018-04-11T21:07:27.890Z,80.61
2018-04-11T21:09:56.170Z,81.34
2018-04-11T21:12:24.888Z,80.98
2018-04-11T21:14:53.152Z,81.09
2018-04-11T21:17:21.415Z,81.31
2018-04-11T21:19:50.215Z,81.20
2018-04-11T21:22:18.537Z,80.55
2018-04-11T21:24:47.609Z,80.40
2018-04-11T21:27:15.900Z,80.51
2018-04-11T21:29:44.713Z,80.89
2018-04-11T21:32:12.991Z,81.15
2018-04-11T21:34:43.583Z,81.02
2018-04-11T21:37:12.201Z,80.56
2018-04-11T21:39:41.243Z,80.47
2018-04-11T21:42:09.513Z,80.71
2018-04-11T21:44:38.002Z,81.23
2018-04-11T21:47:06.294Z,80.90
2018-04-11T21:49:34.601Z,80.64
2018-04-11T21:52:03.592Z,81.11
2018-04-11T21:54:31.955Z,81.08
2018-04-11T21:57:00.239Z,81.39
2018-04-11T21:59:28.542Z,81.00
2018-04-11T22:01:57.595Z,81.05
2018-04-11T22:04:26.390Z,81.00
2018-04-11T22:06:54.702Z,81.17
2018-04-11T22:09:23.865Z,80.78
2018-04-11T22:11:52.352Z,81.92
2018-04-11T22:14:20.640Z,81.35
2018-04-11T22:16:48.930Z,81.56
2018-04-11T22:19:17.597Z,81.39
2018-04-11T22:21:45.862Z,81.69
2018-04-11T22:24:14.151Z,81.51
2018-04-11T22:26:42.726Z,81.63
2018-04-11T22:29:11.012Z,81.61
2018-04-11T22:31:39.273Z,81.79
2018-04-11T22:34:07.759Z,82.12
2018-04-11T22:36:36.042Z,81.93
2018-04-11T22:39:04.335Z,82.07
2018-04-11T22:41:32.628Z,81.89
2018-04-11T22:44:00.905Z,82.52
2018-04-11T22:46:29.900Z,82.71
2018-04-11T22:48:58.361Z,82.29
2018-04-11T22:51:27.249Z,82.34
2018-04-11T22:53:56.276Z,82.09
2018-04-11T22:56:24.599Z,81.73
2018-04-11T22:58:52.861Z,82.02
2018-04-11T23:01:21.127Z,81.99
2018-04-11T23:03:50.170Z,82.41
2018-04-11T23:06:18.488Z,82.36
2018-04-11T23:08:47.679Z,82.34
2018-04-11T23:11:15.934Z,82.33
2018-04-11T23:13:44.492Z,82.24
2018-04-11T23:16:12.753Z,82.17
2018-04-11T23:18:41.020Z,81.95
2018-04-11T23:21:10.151Z,82.71
2018-04-11T23:23:38.846Z,83.28
2018-04-11T23:26:08.278Z,82.84
2018-04-11T23:28:36.622Z,82.72
2018-04-11T23:31:05.102Z,82.89
2018-04-11T23:33:33.370Z,83.02
2018-04-11T23:36:02.721Z,83.37
2018-04-11T23:38:31.023Z,83.07
2018-04-11T23:41:00.491Z,82.89
2018-04-11T23:43:28.767Z,83.17
2018-04-11T23:45:57.232Z,82.75
2018-04-11T23:48:25.501Z,82.92
2018-04-11T23:50:53.978Z,83.42
2018-04-11T23:53:23.756Z,82.95
2018-04-11T23:55:52.915Z,83.34
2018-04-11T23:58:21.277Z,83.29
